Weather at Nashville International Airport

Public forecast

Using degrees Fahrenheit for public forecast. Weather courtesy of forecast.io.

Current aviation weather report (METAR) for Nashville International Airport

Report is more than 6 hours old.

2022/11/14 14:53 (retrieved 2 years ago)

KBNA 141453Z 10006KT 10SM CLR 02/M04 A3032 RMK AO2 SLP272 T00221044 50006

Aviation forecast (TAF) for Nashville International Airport

Forecast is more than 12 hours old.

2023/02/22 18:22 (retrieved 1 year ago)

TAF KBNA 221720Z 2218/2318 19017G34KT P6SM BKN050 FM230000 20025G32KT P6SM VCSH BKN035 FM230200 21010G18KT 6SM -SHRA BKN025 FM230900 21011G18KT P6SM BKN050 FM231300 21011KT P6SM OVC250 FM231500 23013G19KT P6SM OVC250